Terminal Aerodrome Forecast
Issued by NWS Newport/Morehead City, NC

Home | Current Version | Previous Version | Graphics & Text | Print | Product List | Glossary On
Versions: 1 2 3 4 5 6 7 8 9 10 11 12 13 14 15 16 17 18 19
000
FTUS42 KMHX 010018 AAA
TAFEWN
TAF AMD
KEWN 010018Z 0100/0124 19010G21KT P6SM BKN020
      TEMPO 0105/0109 VRB35KT 4SM SHRA BKN015
     FM010900 25011KT P6SM BKN030
     FM011500 28008KT P6SM SCT250=

USA.gov is the U.S. government's official web portal to all federal, state and local government web resources and services.